sensor_id;sensor_type;location;lat;lon;timestamp;temperature;humidity
10247;DHT22;5168;47.854;7.944;2022-12-11T00:56:17;-7.10;99.90
10247;DHT22;5168;47.854;7.944;2022-12-11T00:58:44;-6.50;99.90
10247;DHT22;5168;47.854;7.944;2022-12-11T01:01:13;-6.90;99.90
10247;DHT22;5168;47.854;7.944;2022-12-11T01:03:39;-6.80;99.90
10247;DHT22;5168;47.854;7.944;2022-12-11T01:06:05;-6.80;99.90
10247;DHT22;5168;47.854;7.944;2022-12-11T01:11:06;-6.90;99.90
10247;DHT22;5168;47.854;7.944;2022-12-11T01:13:32;-6.20;99.90
10247;DHT22;5168;47.854;7.944;2022-12-11T01:18:24;-7.00;99.90
10247;DHT22;5168;47.854;7.944;2022-12-11T01:23:16;-7.10;99.90
10247;DHT22;5168;47.854;7.944;2022-12-11T01:35:27;-7.40;99.90
10247;DHT22;5168;47.854;7.944;2022-12-11T01:37:53;-7.40;99.90
10247;DHT22;5168;47.854;7.944;2022-12-11T01:40:19;-7.30;99.90
10247;DHT22;5168;47.854;7.944;2022-12-11T01:45:30;-7.20;99.90
10247;DHT22;5168;47.854;7.944;2022-12-11T01:48:09;-7.40;99.90
10247;DHT22;5168;47.854;7.944;2022-12-11T01:50:51;-6.50;99.90
10247;DHT22;5168;47.854;7.944;2022-12-11T01:53:24;-6.90;99.90
10247;DHT22;5168;47.854;7.944;2022-12-11T01:55:52;-6.90;99.90
10247;DHT22;5168;47.854;7.944;2022-12-11T01:58:21;-6.80;99.90
10247;DHT22;5168;47.854;7.944;2022-12-11T02:00:47;-6.50;99.90
10247;DHT22;5168;47.854;7.944;2022-12-11T02:08:07;-6.60;99.90
10247;DHT22;5168;47.854;7.944;2022-12-11T02:10:45;-6.40;99.90
10247;DHT22;5168;47.854;7.944;2022-12-11T02:13:38;-6.60;99.90
10247;DHT22;5168;47.854;7.944;2022-12-11T02:16:45;-6.50;99.90
10247;DHT22;5168;47.854;7.944;2022-12-11T02:21:43;-6.50;99.90
10247;DHT22;5168;47.854;7.944;2022-12-11T02:28:22;-6.40;99.90
10247;DHT22;5168;47.854;7.944;2022-12-11T02:30:15;-6.40;99.90
10247;DHT22;5168;47.854;7.944;2022-12-11T02:32:47;-6.30;99.90
10247;DHT22;5168;47.854;7.944;2022-12-11T02:35:22;-6.50;99.90
10247;DHT22;5168;47.854;7.944;2022-12-11T02:37:55;-6.70;99.90
10247;DHT22;5168;47.854;7.944;2022-12-11T02:40:25;-6.70;99.90
10247;DHT22;5168;47.854;7.944;2022-12-11T02:42:53;-6.40;99.90
10247;DHT22;5168;47.854;7.944;2022-12-11T02:45:20;-6.50;99.90
10247;DHT22;5168;47.854;7.944;2022-12-11T02:47:48;-6.40;99.90
10247;DHT22;5168;47.854;7.944;2022-12-11T02:50:17;-6.50;99.90
10247;DHT22;5168;47.854;7.944;2022-12-11T02:52:43;-6.40;99.90
10247;DHT22;5168;47.854;7.944;2022-12-11T02:55:11;-6.40;99.90
10247;DHT22;5168;47.854;7.944;2022-12-11T02:57:52;-5.50;99.90
10247;DHT22;5168;47.854;7.944;2022-12-11T03:05:13;-6.40;99.90
10247;DHT22;5168;47.854;7.944;2022-12-11T03:07:41;-6.30;99.90
10247;DHT22;5168;47.854;7.944;2022-12-11T03:10:11;-6.60;99.90
10247;DHT22;5168;47.854;7.944;2022-12-11T03:12:39;-6.50;99.90
10247;DHT22;5168;47.854;7.944;2022-12-11T03:15:09;-6.40;99.90
10247;DHT22;5168;47.854;7.944;2022-12-11T03:17:53;-6.40;99.90
10247;DHT22;5168;47.854;7.944;2022-12-11T03:20:42;-6.70;99.90
10247;DHT22;5168;47.854;7.944;2022-12-11T03:23:36;-6.50;99.90
10247;DHT22;5168;47.854;7.944;2022-12-11T03:26:10;-5.90;99.90
10247;DHT22;5168;47.854;7.944;2022-12-11T03:31:12;-6.40;99.90
10247;DHT22;5168;47.854;7.944;2022-12-11T03:33:41;-6.60;99.90
10247;DHT22;5168;47.854;7.944;2022-12-11T03:36:16;-6.70;99.90
10247;DHT22;5168;47.854;7.944;2022-12-11T03:38:47;-6.60;99.90
10247;DHT22;5168;47.854;7.944;2022-12-11T03:41:16;-6.70;99.90
10247;DHT22;5168;47.854;7.944;2022-12-11T03:43:43;-6.80;99.90
10247;DHT22;5168;47.854;7.944;2022-12-11T03:46:11;-6.90;99.90
10247;DHT22;5168;47.854;7.944;2022-12-11T03:48:39;-7.20;99.90
10247;DHT22;5168;47.854;7.944;2022-12-11T03:51:07;-7.20;99.90
10247;DHT22;5168;47.854;7.944;2022-12-11T03:53:34;-7.50;99.90
10247;DHT22;5168;47.854;7.944;2022-12-11T03:56:01;-7.40;99.90
10247;DHT22;5168;47.854;7.944;2022-12-11T04:05:52;-7.50;99.90
10247;DHT22;5168;47.854;7.944;2022-12-11T04:08:19;-7.60;99.90
10247;DHT22;5168;47.854;7.944;2022-12-11T04:10:45;-7.80;99.90
10247;DHT22;5168;47.854;7.944;2022-12-11T04:15:38;-7.90;99.90
10247;DHT22;5168;47.854;7.944;2022-12-11T04:18:03;-7.90;99.90
10247;DHT22;5168;47.854;7.944;2022-12-11T04:23:32;-8.40;99.90
10247;DHT22;5168;47.854;7.944;2022-12-11T04:26:19;-8.40;99.90
10247;DHT22;5168;47.854;7.944;2022-12-11T04:28:46;-8.30;99.90
10247;DHT22;5168;47.854;7.944;2022-12-11T04:31:17;-8.30;99.90
10247;DHT22;5168;47.854;7.944;2022-12-11T04:36:09;-8.20;99.90
10247;DHT22;5168;47.854;7.944;2022-12-11T04:41:04;-8.40;99.90
10247;DHT22;5168;47.854;7.944;2022-12-11T04:46:08;-8.60;99.90
10247;DHT22;5168;47.854;7.944;2022-12-11T04:48:35;-8.50;99.90
10247;DHT22;5168;47.854;7.944;2022-12-11T05:12:56;-8.70;99.90
10247;DHT22;5168;47.854;7.944;2022-12-11T05:15:21;-8.70;99.90
10247;DHT22;5168;47.854;7.944;2022-12-11T05:25:06;-8.70;99.90
10247;DHT22;5168;47.854;7.944;2022-12-11T05:32:24;-8.60;99.90
10247;DHT22;5168;47.854;7.944;2022-12-11T05:42:07;-8.90;99.90
10247;DHT22;5168;47.854;7.944;2022-12-11T05:59:09;-8.40;99.90
10247;DHT22;5168;47.854;7.944;2022-12-11T06:01:40;-9.10;99.90
10247;DHT22;5168;47.854;7.944;2022-12-11T06:04:07;-9.10;99.90
10247;DHT22;5168;47.854;7.944;2022-12-11T06:06:34;-8.90;99.90
10247;DHT22;5168;47.854;7.944;2022-12-11T06:09:00;-8.80;99.90
10247;DHT22;5168;47.854;7.944;2022-12-11T06:11:28;-8.80;99.90
10247;DHT22;5168;47.854;7.944;2022-12-11T06:16:20;-8.60;99.90
10247;DHT22;5168;47.854;7.944;2022-12-11T06:18:46;-8.60;99.90
10247;DHT22;5168;47.854;7.944;2022-12-11T06:21:19;-8.60;99.90
10247;DHT22;5168;47.854;7.944;2022-12-11T06:23:46;-8.60;99.90
10247;DHT22;5168;47.854;7.944;2022-12-11T06:26:12;-8.70;99.90
10247;DHT22;5168;47.854;7.944;2022-12-11T06:28:39;-8.90;99.90
10247;DHT22;5168;47.854;7.944;2022-12-11T06:31:05;-8.90;99.90
10247;DHT22;5168;47.854;7.944;2022-12-11T06:36:07;-8.90;99.90
10247;DHT22;5168;47.854;7.944;2022-12-11T06:41:01;-8.70;99.90
10247;DHT22;5168;47.854;7.944;2022-12-11T06:45:54;-9.20;99.90
10247;DHT22;5168;47.854;7.944;2022-12-11T06:53:15;-9.20;99.90
10247;DHT22;5168;47.854;7.944;2022-12-11T06:58:07;-9.10;99.90
10247;DHT22;5168;47.854;7.944;2022-12-11T07:00:34;-9.30;99.90
10247;DHT22;5168;47.854;7.944;2022-12-11T07:03:00;-9.30;99.90
10247;DHT22;5168;47.854;7.944;2022-12-11T07:07:53;-9.40;99.90
10247;DHT22;5168;47.854;7.944;2022-12-11T07:22:29;-9.40;99.90
10247;DHT22;5168;47.854;7.944;2022-12-11T07:29:47;-9.00;99.90
10247;DHT22;5168;47.854;7.944;2022-12-11T07:37:05;-8.70;99.90
10247;DHT22;5168;47.854;7.944;2022-12-11T07:44:22;-8.80;99.90
10247;DHT22;5168;47.854;7.944;2022-12-11T07:49:13;-8.20;99.90
10247;DHT22;5168;47.854;7.944;2022-12-11T07:54:11;-8.70;99.90
10247;DHT22;5168;47.854;7.944;2022-12-11T08:01:34;-8.90;99.90
10247;DHT22;5168;47.854;7.944;2022-12-11T08:04:00;-8.60;99.90
10247;DHT22;5168;47.854;7.944;2022-12-11T08:06:29;-8.20;99.90
10247;DHT22;5168;47.854;7.944;2022-12-11T08:08:56;-7.50;99.90
10247;DHT22;5168;47.854;7.944;2022-12-11T08:11:22;-7.10;99.90
10247;DHT22;5168;47.854;7.944;2022-12-11T08:16:15;-5.80;99.90
10247;DHT22;5168;47.854;7.944;2022-12-11T08:18:42;-5.20;99.90
10247;DHT22;5168;47.854;7.944;2022-12-11T08:21:26;-4.60;99.90
10247;DHT22;5168;47.854;7.944;2022-12-11T08:23:53;-4.20;99.90
10247;DHT22;5168;47.854;7.944;2022-12-11T08:26:29;-3.50;99.90
10247;DHT22;5168;47.854;7.944;2022-12-11T08:31:22;-2.50;99.90
10247;DHT22;5168;47.854;7.944;2022-12-11T08:33:48;-1.90;99.90
10247;DHT22;5168;47.854;7.944;2022-12-11T08:36:16;-1.20;99.90
10247;DHT22;5168;47.854;7.944;2022-12-11T08:41:09;-0.50;99.90
10247;DHT22;5168;47.854;7.944;2022-12-11T08:43:35;-0.50;99.90
10247;DHT22;5168;47.854;7.944;2022-12-11T08:46:01;0.30;99.90
10247;DHT22;5168;47.854;7.944;2022-12-11T08:48:26;0.40;99.90
10247;DHT22;5168;47.854;7.944;2022-12-11T08:53:17;1.70;99.90
10247;DHT22;5168;47.854;7.944;2022-12-11T08:55:43;1.70;99.90
10247;DHT22;5168;47.854;7.944;2022-12-11T08:58:09;2.70;99.90
10247;DHT22;5168;47.854;7.944;2022-12-11T09:00:34;2.70;99.90
10247;DHT22;5168;47.854;7.944;2022-12-11T09:05:26;3.10;99.90
10247;DHT22;5168;47.854;7.944;2022-12-11T09:07:52;3.60;99.90
10247;DHT22;5168;47.854;7.944;2022-12-11T09:10:18;3.90;99.90
10247;DHT22;5168;47.854;7.944;2022-12-11T09:12:43;4.00;99.90
10247;DHT22;5168;47.854;7.944;2022-12-11T09:15:09;4.30;99.90
10247;DHT22;5168;47.854;7.944;2022-12-11T09:17:35;5.30;99.90
10247;DHT22;5168;47.854;7.944;2022-12-11T09:20:00;5.30;99.90
10247;DHT22;5168;47.854;7.944;2022-12-11T09:22:26;5.40;99.90
10247;DHT22;5168;47.854;7.944;2022-12-11T09:24:51;5.90;99.90
10247;DHT22;5168;47.854;7.944;2022-12-11T09:27:17;6.30;99.90
10247;DHT22;5168;47.854;7.944;2022-12-11T09:29:45;6.40;99.70
10247;DHT22;5168;47.854;7.944;2022-12-11T09:32:11;6.60;99.60
10247;DHT22;5168;47.854;7.944;2022-12-11T09:34:36;7.00;99.00
10247;DHT22;5168;47.854;7.944;2022-12-11T09:37:02;7.30;98.20
10247;DHT22;5168;47.854;7.944;2022-12-11T09:39:27;7.70;96.70
10247;DHT22;5168;47.854;7.944;2022-12-11T09:42:07;8.00;94.40
10247;DHT22;5168;47.854;7.944;2022-12-11T09:44:47;8.30;92.40
10247;DHT22;5168;47.854;7.944;2022-12-11T09:47:32;8.60;91.40
10247;DHT22;5168;47.854;7.944;2022-12-11T09:52:59;9.40;88.70
10247;DHT22;5168;47.854;7.944;2022-12-11T09:55:55;9.60;82.60
10247;DHT22;5168;47.854;7.944;2022-12-11T10:01:25;9.60;77.40
10247;DHT22;5168;47.854;7.944;2022-12-11T10:04:17;9.50;76.20
10247;DHT22;5168;47.854;7.944;2022-12-11T10:07:15;9.80;76.10
10247;DHT22;5168;47.854;7.944;2022-12-11T10:09:50;10.30;73.40
10247;DHT22;5168;47.854;7.944;2022-12-11T10:15:22;11.00;68.10
10247;DHT22;5168;47.854;7.944;2022-12-11T10:17:50;11.30;66.10
10247;DHT22;5168;47.854;7.944;2022-12-11T10:20:22;11.20;63.50
10247;DHT22;5168;47.854;7.944;2022-12-11T10:22:49;11.20;64.40
10247;DHT22;5168;47.854;7.944;2022-12-11T10:25:25;11.40;64.10
10247;DHT22;5168;47.854;7.944;2022-12-11T10:27:52;11.50;61.90
10247;DHT22;5168;47.854;7.944;2022-12-11T10:30:19;12.30;62.70
10247;DHT22;5168;47.854;7.944;2022-12-11T10:35:44;12.40;60.70
10247;DHT22;5168;47.854;7.944;2022-12-11T10:40:50;12.50;58.40
10247;DHT22;5168;47.854;7.944;2022-12-11T10:43:15;12.40;58.80
10247;DHT22;5168;47.854;7.944;2022-12-11T10:45:53;12.80;56.20
10247;DHT22;5168;47.854;7.944;2022-12-11T10:48:19;12.80;56.60
10247;DHT22;5168;47.854;7.944;2022-12-11T10:51:00;12.90;56.30
10247;DHT22;5168;47.854;7.944;2022-12-11T10:53:27;13.30;55.00
10247;DHT22;5168;47.854;7.944;2022-12-11T10:55:53;13.10;53.80
10247;DHT22;5168;47.854;7.944;2022-12-11T10:58:22;12.90;52.90
10247;DHT22;5168;47.854;7.944;2022-12-11T11:01:09;12.50;53.60
10247;DHT22;5168;47.854;7.944;2022-12-11T11:03:53;12.50;52.80
10247;DHT22;5168;47.854;7.944;2022-12-11T11:06:20;12.70;54.20
10247;DHT22;5168;47.854;7.944;2022-12-11T11:08:49;13.30;54.70
10247;DHT22;5168;47.854;7.944;2022-12-11T11:13:46;13.20;55.10
10247;DHT22;5168;47.854;7.944;2022-12-11T11:16:15;13.60;54.50
10247;DHT22;5168;47.854;7.944;2022-12-11T11:18:49;13.60;54.20
10247;DHT22;5168;47.854;7.944;2022-12-11T11:21:18;15.10;55.10
10247;DHT22;5168;47.854;7.944;2022-12-11T11:23:44;14.20;53.10
10247;DHT22;5168;47.854;7.944;2022-12-11T11:26:10;14.80;52.30
10247;DHT22;5168;47.854;7.944;2022-12-11T11:28:40;15.30;51.50
10247;DHT22;5168;47.854;7.944;2022-12-11T11:31:14;15.90;51.30
10247;DHT22;5168;47.854;7.944;2022-12-11T11:34:06;15.80;50.20
10247;DHT22;5168;47.854;7.944;2022-12-11T11:36:35;14.70;50.40
10247;DHT22;5168;47.854;7.944;2022-12-11T11:44:14;10.40;53.20
10247;DHT22;5168;47.854;7.944;2022-12-11T11:46:47;9.30;55.10
10247;DHT22;5168;47.854;7.944;2022-12-11T11:49:39;8.30;56.60
10247;DHT22;5168;47.854;7.944;2022-12-11T11:54:49;6.30;61.00
10247;DHT22;5168;47.854;7.944;2022-12-11T11:57:30;6.30;61.00
10247;DHT22;5168;47.854;7.944;2022-12-11T12:00:00;5.30;65.70
10247;DHT22;5168;47.854;7.944;2022-12-11T12:05:02;4.70;67.60
10247;DHT22;5168;47.854;7.944;2022-12-11T12:10:17;4.40;65.60
10247;DHT22;5168;47.854;7.944;2022-12-11T12:15:14;3.50;70.70
10247;DHT22;5168;47.854;7.944;2022-12-11T12:18:01;3.20;71.20
10247;DHT22;5168;47.854;7.944;2022-12-11T12:22:59;2.80;70.90
10247;DHT22;5168;47.854;7.944;2022-12-11T12:25:36;2.50;71.70
10247;DHT22;5168;47.854;7.944;2022-12-11T12:28:25;1.90;73.10
10247;DHT22;5168;47.854;7.944;2022-12-11T12:36:38;3.30;74.00
10247;DHT22;5168;47.854;7.944;2022-12-11T12:42:15;3.40;76.10
10247;DHT22;5168;47.854;7.944;2022-12-11T12:47:14;2.70;74.20
10247;DHT22;5168;47.854;7.944;2022-12-11T12:49:47;2.50;79.20
10247;DHT22;5168;47.854;7.944;2022-12-11T12:52:30;2.10;76.50
10247;DHT22;5168;47.854;7.944;2022-12-11T12:54:58;2.10;78.90
10247;DHT22;5168;47.854;7.944;2022-12-11T12:57:52;1.90;80.40
10247;DHT22;5168;47.854;7.944;2022-12-11T13:00:34;2.00;81.50
10247;DHT22;5168;47.854;7.944;2022-12-11T13:03:12;1.60;76.20
10247;DHT22;5168;47.854;7.944;2022-12-11T13:05:40;1.40;77.40
10247;DHT22;5168;47.854;7.944;2022-12-11T13:08:07;1.10;81.50
10247;DHT22;5168;47.854;7.944;2022-12-11T13:10:38;0.40;83.10
10247;DHT22;5168;47.854;7.944;2022-12-11T13:13:05;0.70;80.40
10247;DHT22;5168;47.854;7.944;2022-12-11T13:15:49;0.60;85.90
10247;DHT22;5168;47.854;7.944;2022-12-11T13:18:36;0.50;87.10
10247;DHT22;5168;47.854;7.944;2022-12-11T13:26:29;-0.10;91.00
10247;DHT22;5168;47.854;7.944;2022-12-11T13:34:20;-0.20;92.10
10247;DHT22;5168;47.854;7.944;2022-12-11T13:36:51;-0.20;92.40
10247;DHT22;5168;47.854;7.944;2022-12-11T13:39:24;0.10;92.60
10247;DHT22;5168;47.854;7.944;2022-12-11T13:42:06;-0.10;92.60
10247;DHT22;5168;47.854;7.944;2022-12-11T13:44:38;0.30;93.00
10247;DHT22;5168;47.854;7.944;2022-12-11T13:47:06;1.10;93.20
10247;DHT22;5168;47.854;7.944;2022-12-11T13:49:37;2.20;90.20
10247;DHT22;5168;47.854;7.944;2022-12-11T13:52:05;2.40;89.80
10247;DHT22;5168;47.854;7.944;2022-12-11T13:54:33;2.70;88.90
10247;DHT22;5168;47.854;7.944;2022-12-11T13:57:15;1.90;88.00
10247;DHT22;5168;47.854;7.944;2022-12-11T13:59:46;1.70;87.70
10247;DHT22;5168;47.854;7.944;2022-12-11T14:02:33;1.00;90.40
10247;DHT22;5168;47.854;7.944;2022-12-11T14:05:02;0.30;88.20
10247;DHT22;5168;47.854;7.944;2022-12-11T14:07:45;-0.10;90.00
10247;DHT22;5168;47.854;7.944;2022-12-11T14:10:15;-0.30;93.50
10247;DHT22;5168;47.854;7.944;2022-12-11T14:12:45;-1.10;93.70
10247;DHT22;5168;47.854;7.944;2022-12-11T14:15:14;-1.10;93.50
10247;DHT22;5168;47.854;7.944;2022-12-11T14:17:41;-1.30;95.80
10247;DHT22;5168;47.854;7.944;2022-12-11T14:20:34;-1.50;96.10
10247;DHT22;5168;47.854;7.944;2022-12-11T14:23:14;-1.70;96.70
10247;DHT22;5168;47.854;7.944;2022-12-11T14:28:15;-1.90;98.10
10247;DHT22;5168;47.854;7.944;2022-12-11T14:30:46;-2.00;99.10
10247;DHT22;5168;47.854;7.944;2022-12-11T14:33:14;-2.10;97.90
10247;DHT22;5168;47.854;7.944;2022-12-11T14:35:42;-2.00;99.90
10247;DHT22;5168;47.854;7.944;2022-12-11T14:38:32;-2.20;99.90
10247;DHT22;5168;47.854;7.944;2022-12-11T14:41:04;-2.20;99.90
10247;DHT22;5168;47.854;7.944;2022-12-11T14:43:36;-2.30;99.90
10247;DHT22;5168;47.854;7.944;2022-12-11T14:46:09;-2.20;99.90
10247;DHT22;5168;47.854;7.944;2022-12-11T14:48:45;-2.30;99.90
10247;DHT22;5168;47.854;7.944;2022-12-11T14:51:16;-2.10;99.90
10247;DHT22;5168;47.854;7.944;2022-12-11T14:53:46;-2.00;99.90
10247;DHT22;5168;47.854;7.944;2022-12-11T14:56:20;-1.90;99.90
10247;DHT22;5168;47.854;7.944;2022-12-11T14:59:03;-1.70;99.90
10247;DHT22;5168;47.854;7.944;2022-12-11T15:01:34;-1.90;99.90
10247;DHT22;5168;47.854;7.944;2022-12-11T15:06:45;-2.00;99.90
10247;DHT22;5168;47.854;7.944;2022-12-11T15:12:24;-2.10;99.90
10247;DHT22;5168;47.854;7.944;2022-12-11T15:14:54;-2.20;99.90
10247;DHT22;5168;47.854;7.944;2022-12-11T15:17:22;-2.20;99.90
10247;DHT22;5168;47.854;7.944;2022-12-11T15:19:52;-2.40;99.90
10247;DHT22;5168;47.854;7.944;2022-12-11T15:22:20;-2.00;99.90
10247;DHT22;5168;47.854;7.944;2022-12-11T15:24:50;-2.80;99.90
10247;DHT22;5168;47.854;7.944;2022-12-11T15:27:36;-2.60;99.90
10247;DHT22;5168;47.854;7.944;2022-12-11T15:35:35;-3.60;99.90
10247;DHT22;5168;47.854;7.944;2022-12-11T15:38:01;-3.60;99.90
10247;DHT22;5168;47.854;7.944;2022-12-11T15:40:27;-3.90;99.90
10247;DHT22;5168;47.854;7.944;2022-12-11T15:42:54;-4.10;99.90
10247;DHT22;5168;47.854;7.944;2022-12-11T15:45:24;-4.60;99.90
10247;DHT22;5168;47.854;7.944;2022-12-11T15:55:13;-4.60;99.90
10247;DHT22;5168;47.854;7.944;2022-12-11T15:57:42;-4.70;99.90
10247;DHT22;5168;47.854;7.944;2022-12-11T16:00:13;-4.90;99.90
10247;DHT22;5168;47.854;7.944;2022-12-11T16:02:39;-4.90;99.90
10247;DHT22;5168;47.854;7.944;2022-12-11T16:05:05;-5.00;99.90
10247;DHT22;5168;47.854;7.944;2022-12-11T16:07:30;-5.40;99.90
10247;DHT22;5168;47.854;7.944;2022-12-11T16:09:56;-5.30;99.90
10247;DHT22;5168;47.854;7.944;2022-12-11T16:12:22;-5.30;99.90
10247;DHT22;5168;47.854;7.944;2022-12-11T16:17:14;-5.50;99.90
10247;DHT22;5168;47.854;7.944;2022-12-11T16:19:40;-5.60;99.90
10247;DHT22;5168;47.854;7.944;2022-12-11T16:22:07;-5.60;99.90
10247;DHT22;5168;47.854;7.944;2022-12-11T16:24:33;-5.40;99.90
10247;DHT22;5168;47.854;7.944;2022-12-11T16:26:59;-5.90;99.90
10247;DHT22;5168;47.854;7.944;2022-12-11T16:31:51;-5.90;99.90
10247;DHT22;5168;47.854;7.944;2022-12-11T16:34:16;-6.20;99.90
10247;DHT22;5168;47.854;7.944;2022-12-11T16:36:42;-6.30;99.90
10247;DHT22;5168;47.854;7.944;2022-12-11T16:39:10;-6.10;99.90
10247;DHT22;5168;47.854;7.944;2022-12-11T16:44:02;-6.00;99.90
10247;DHT22;5168;47.854;7.944;2022-12-11T16:53:46;-6.30;99.90
10247;DHT22;5168;47.854;7.944;2022-12-11T16:56:11;-5.70;99.90
10247;DHT22;5168;47.854;7.944;2022-12-11T16:58:37;-6.40;99.90
10247;DHT22;5168;47.854;7.944;2022-12-11T17:01:11;-6.50;99.90
10247;DHT22;5168;47.854;7.944;2022-12-11T17:03:38;-6.70;99.90
10247;DHT22;5168;47.854;7.944;2022-12-11T17:06:05;-6.80;99.90
10247;DHT22;5168;47.854;7.944;2022-12-11T17:13:23;-6.90;99.90
10247;DHT22;5168;47.854;7.944;2022-12-11T17:15:48;-6.90;99.90
10247;DHT22;5168;47.854;7.944;2022-12-11T17:18:14;-7.40;99.90
10247;DHT22;5168;47.854;7.944;2022-12-11T17:20:43;-7.10;99.90
10247;DHT22;5168;47.854;7.944;2022-12-11T17:23:10;-7.20;99.90
10247;DHT22;5168;47.854;7.944;2022-12-11T17:25:43;-7.10;99.90
10247;DHT22;5168;47.854;7.944;2022-12-11T17:28:10;-7.10;99.90
10247;DHT22;5168;47.854;7.944;2022-12-11T17:30:40;-7.00;99.90
10247;DHT22;5168;47.854;7.944;2022-12-11T17:33:06;-7.00;99.90
10247;DHT22;5168;47.854;7.944;2022-12-11T17:35:32;-7.30;99.90
10247;DHT22;5168;47.854;7.944;2022-12-11T17:37:58;-7.20;99.90
10247;DHT22;5168;47.854;7.944;2022-12-11T17:42:50;-7.50;99.90
10247;DHT22;5168;47.854;7.944;2022-12-11T17:55:02;-7.30;99.90
10247;DHT22;5168;47.854;7.944;2022-12-11T17:57:27;-7.40;99.90
10247;DHT22;5168;47.854;7.944;2022-12-11T17:59:53;-7.30;99.90
10247;DHT22;5168;47.854;7.944;2022-12-11T18:02:19;-7.50;99.90
10247;DHT22;5168;47.854;7.944;2022-12-11T18:07:11;-7.40;99.90
10247;DHT22;5168;47.854;7.944;2022-12-11T18:09:40;-7.40;99.90
10247;DHT22;5168;47.854;7.944;2022-12-11T18:12:07;-7.50;99.90
10247;DHT22;5168;47.854;7.944;2022-12-11T18:14:33;-7.50;99.90
10247;DHT22;5168;47.854;7.944;2022-12-11T18:16:59;-7.40;99.90
10247;DHT22;5168;47.854;7.944;2022-12-11T18:19:24;-7.30;99.90
10247;DHT22;5168;47.854;7.944;2022-12-11T18:21:52;-7.70;99.90
10247;DHT22;5168;47.854;7.944;2022-12-11T18:24:19;-7.40;99.90
10247;DHT22;5168;47.854;7.944;2022-12-11T18:26:44;-7.50;99.90
10247;DHT22;5168;47.854;7.944;2022-12-11T18:31:36;-7.70;99.90
10247;DHT22;5168;47.854;7.944;2022-12-11T18:36:31;-7.60;99.90
10247;DHT22;5168;47.854;7.944;2022-12-11T18:38:57;-8.00;99.90
10247;DHT22;5168;47.854;7.944;2022-12-11T18:41:23;-7.70;99.90
10247;DHT22;5168;47.854;7.944;2022-12-11T18:43:49;-7.60;99.90
10247;DHT22;5168;47.854;7.944;2022-12-11T18:46:16;-7.60;99.90
10247;DHT22;5168;47.854;7.944;2022-12-11T18:48:43;-7.80;99.90
10247;DHT22;5168;47.854;7.944;2022-12-11T18:51:12;-8.00;99.90
10247;DHT22;5168;47.854;7.944;2022-12-11T18:56:06;-8.00;99.90
10247;DHT22;5168;47.854;7.944;2022-12-11T18:58:32;-7.90;99.90
10247;DHT22;5168;47.854;7.944;2022-12-11T19:00:57;-8.30;99.90
10247;DHT22;5168;47.854;7.944;2022-12-11T19:03:23;-7.90;99.90
10247;DHT22;5168;47.854;7.944;2022-12-11T19:08:14;-8.00;99.90
10247;DHT22;5168;47.854;7.944;2022-12-11T19:10:45;-7.20;99.90
10247;DHT22;5168;47.854;7.944;2022-12-11T19:15:39;-8.40;99.90
10247;DHT22;5168;47.854;7.944;2022-12-11T19:20:35;-8.00;99.90
10247;DHT22;5168;47.854;7.944;2022-12-11T19:23:00;-7.90;99.90
10247;DHT22;5168;47.854;7.944;2022-12-11T19:25:26;-7.90;99.90
10247;DHT22;5168;47.854;7.944;2022-12-11T19:30:21;-7.90;99.90
10247;DHT22;5168;47.854;7.944;2022-12-11T19:32:46;-8.40;99.90
10247;DHT22;5168;47.854;7.944;2022-12-11T19:35:12;-8.00;99.90
10247;DHT22;5168;47.854;7.944;2022-12-11T19:37:39;-8.00;99.90
10247;DHT22;5168;47.854;7.944;2022-12-11T19:40:05;-8.10;99.90
10247;DHT22;5168;47.854;7.944;2022-12-11T19:42:33;-8.00;99.90
10247;DHT22;5168;47.854;7.944;2022-12-11T19:49:51;-8.10;99.90
10247;DHT22;5168;47.854;7.944;2022-12-11T19:52:16;-8.10;99.90
10247;DHT22;5168;47.854;7.944;2022-12-11T19:59:34;-8.10;99.90
10247;DHT22;5168;47.854;7.944;2022-12-11T20:01:59;-8.10;99.90
10247;DHT22;5168;47.854;7.944;2022-12-11T20:04:25;-8.10;99.90
10247;DHT22;5168;47.854;7.944;2022-12-11T20:11:43;-8.20;99.90
10247;DHT22;5168;47.854;7.944;2022-12-11T20:14:16;-8.20;99.90
10247;DHT22;5168;47.854;7.944;2022-12-11T20:16:43;-8.10;99.90
10247;DHT22;5168;47.854;7.944;2022-12-11T20:19:08;-8.20;99.90
10247;DHT22;5168;47.854;7.944;2022-12-11T20:21:34;-8.10;99.90
10247;DHT22;5168;47.854;7.944;2022-12-11T20:26:25;-8.00;99.90
10247;DHT22;5168;47.854;7.944;2022-12-11T20:28:52;-7.90;99.90
10247;DHT22;5168;47.854;7.944;2022-12-11T20:31:20;-8.00;99.90
10247;DHT22;5168;47.854;7.944;2022-12-11T20:33:48;-8.00;99.90
10247;DHT22;5168;47.854;7.944;2022-12-11T20:36:15;-8.60;99.90
10247;DHT22;5168;47.854;7.944;2022-12-11T20:38:41;-7.70;99.90
10247;DHT22;5168;47.854;7.944;2022-12-11T20:41:12;-8.10;99.90
10247;DHT22;5168;47.854;7.944;2022-12-11T20:46:06;-8.10;99.90
10247;DHT22;5168;47.854;7.944;2022-12-11T20:48:32;-8.10;99.90
10247;DHT22;5168;47.854;7.944;2022-12-11T20:50:59;-8.30;99.90
10247;DHT22;5168;47.854;7.944;2022-12-11T20:55:53;-8.30;99.90
10247;DHT22;5168;47.854;7.944;2022-12-11T20:58:18;-8.10;99.90
10247;DHT22;5168;47.854;7.944;2022-12-11T21:00:45;-7.80;99.90
10247;DHT22;5168;47.854;7.944;2022-12-11T21:03:12;-8.40;99.90
10247;DHT22;5168;47.854;7.944;2022-12-11T21:05:40;-8.20;99.90
10247;DHT22;5168;47.854;7.944;2022-12-11T21:10:32;-8.30;99.90
10247;DHT22;5168;47.854;7.944;2022-12-11T21:17:50;-8.30;99.90
10247;DHT22;5168;47.854;7.944;2022-12-11T21:20:16;-8.30;99.90
10247;DHT22;5168;47.854;7.944;2022-12-11T21:25:08;-8.30;99.90
10247;DHT22;5168;47.854;7.944;2022-12-11T21:37:21;-8.30;99.90
10247;DHT22;5168;47.854;7.944;2022-12-11T21:39:47;-8.20;99.90
10247;DHT22;5168;47.854;7.944;2022-12-11T21:44:38;-8.30;99.90
10247;DHT22;5168;47.854;7.944;2022-12-11T21:47:04;-8.00;99.90
10247;DHT22;5168;47.854;7.944;2022-12-11T21:49:29;-7.70;99.90
10247;DHT22;5168;47.854;7.944;2022-12-11T21:59:13;-8.20;99.90
10247;DHT22;5168;47.854;7.944;2022-12-11T22:01:41;-8.30;99.90
10247;DHT22;5168;47.854;7.944;2022-12-11T22:04:09;-8.50;99.90
10247;DHT22;5168;47.854;7.944;2022-12-11T22:06:34;-8.60;99.90
10247;DHT22;5168;47.854;7.944;2022-12-11T22:09:00;-8.50;99.90
10247;DHT22;5168;47.854;7.944;2022-12-11T22:11:29;-8.50;99.90
10247;DHT22;5168;47.854;7.944;2022-12-11T22:13:55;-8.40;99.90
10247;DHT22;5168;47.854;7.944;2022-12-11T22:16:21;-8.20;99.90
10247;DHT22;5168;47.854;7.944;2022-12-11T22:18:47;-8.50;99.90
10247;DHT22;5168;47.854;7.944;2022-12-11T22:21:13;-8.30;99.90
10247;DHT22;5168;47.854;7.944;2022-12-11T22:23:39;-8.50;99.90
10247;DHT22;5168;47.854;7.944;2022-12-11T22:26:07;-8.20;99.90
10247;DHT22;5168;47.854;7.944;2022-12-11T22:28:32;-7.90;99.90
10247;DHT22;5168;47.854;7.944;2022-12-11T22:30:58;-8.50;99.90
10247;DHT22;5168;47.854;7.944;2022-12-11T22:35:57;-8.60;99.90
10247;DHT22;5168;47.854;7.944;2022-12-11T22:38:23;-8.50;99.90
10247;DHT22;5168;47.854;7.944;2022-12-11T22:40:49;-8.40;99.90
10247;DHT22;5168;47.854;7.944;2022-12-11T22:48:07;-8.70;99.90
10247;DHT22;5168;47.854;7.944;2022-12-11T22:50:33;-8.50;99.90
10247;DHT22;5168;47.854;7.944;2022-12-11T22:55:25;-8.30;99.90
10247;DHT22;5168;47.854;7.944;2022-12-11T22:57:50;-8.50;99.90
10247;DHT22;5168;47.854;7.944;2022-12-11T23:00:16;-8.30;99.90
10247;DHT22;5168;47.854;7.944;2022-12-11T23:05:09;-8.40;99.90
10247;DHT22;5168;47.854;7.944;2022-12-11T23:07:36;-8.60;99.90
10247;DHT22;5168;47.854;7.944;2022-12-11T23:10:02;-8.70;99.90
10247;DHT22;5168;47.854;7.944;2022-12-11T23:12:27;-8.50;99.90
10247;DHT22;5168;47.854;7.944;2022-12-11T23:14:53;-8.70;99.90